Time;durP1;ratioP1;P1;durP2;ratioP2;P2;SDS_P1;SDS_P2;PMS_P1;PMS_P2;Temp;Humidity;BMP_temperature;BMP_pressure;BME280_temperature;BME280_humidity;BME280_pressure;Samples;Min_cycle;Max_cycle;Signal;HPM_P1;HPM_P2
2021/05/16 00:02:22;;;;;;;0.20;0.10;;;10.90;95.80;;;;;;5053081;28;20380;-73
2021/05/16 00:04:48;;;;;;;0.10;0.10;;;10.90;95.90;;;;;;5052070;28;20036;-77
2021/05/16 00:07:13;;;;;;;0.40;0.10;;;10.90;95.90;;;;;;5053622;28;20489;-77
2021/05/16 00:09:40;;;;;;;0.37;0.20;;;11.00;95.90;;;;;;5051961;28;20040;-77
2021/05/16 00:12:08;;;;;;;0.30;0.10;;;11.00;95.90;;;;;;5051890;28;20071;-80
2021/05/16 00:14:36;;;;;;;0.33;0.20;;;11.00;95.90;;;;;;5035624;28;20025;-78
2021/05/16 00:17:03;;;;;;;0.90;0.17;;;11.00;95.90;;;;;;5053071;28;20029;-77
2021/05/16 00:19:28;;;;;;;0.20;0.17;;;11.20;95.90;;;;;;5051758;28;20020;-78
2021/05/16 00:21:55;;;;;;;0.30;0.10;;;11.10;95.90;;;;;;5051947;28;20087;-78
2021/05/16 00:24:20;;;;;;;0.40;0.13;;;11.00;95.80;;;;;;5066096;28;20033;-80
2021/05/16 00:26:46;;;;;;;0.30;0.10;;;11.00;95.80;;;;;;5055008;28;20104;-81
2021/05/16 00:29:12;;;;;;;0.30;0.10;;;11.10;95.90;;;;;;5072005;28;20021;-79
2021/05/16 00:31:37;;;;;;;0.20;0.10;;;11.10;95.90;;;;;;5071793;28;20059;-78
2021/05/16 00:34:03;;;;;;;0.30;0.10;;;11.00;95.80;;;;;;5071654;28;20012;-79
2021/05/16 00:36:29;;;;;;;0.60;0.13;;;11.10;95.90;;;;;;5072838;28;20484;-79
2021/05/16 00:38:56;;;;;;;0.30;0.10;;;11.10;95.90;;;;;;5075035;28;20581;-77
2021/05/16 00:41:23;;;;;;;0.43;0.13;;;11.00;95.90;;;;;;5057600;28;20024;-78
2021/05/16 00:43:49;;;;;;;0.53;0.20;;;11.00;95.90;;;;;;5076440;28;20028;-80
2021/05/16 00:46:14;;;;;;;0.00;0.00;;;11.00;95.90;;;;;;5076363;28;20044;-77
2021/05/16 00:48:40;;;;;;;0.40;0.10;;;11.10;96.00;;;;;;5058529;28;20107;-79
2021/05/16 00:51:06;;;;;;;0.93;0.10;;;11.00;95.90;;;;;;5076242;28;20024;-79
2021/05/16 00:53:32;;;;;;;0.20;0.10;;;11.10;96.00;;;;;;5074982;28;20044;-80
2021/05/16 00:55:58;;;;;;;0.30;0.10;;;11.10;96.00;;;;;;5076427;28;20028;-78
2021/05/16 00:58:27;;;;;;;0.37;0.10;;;11.10;96.00;;;;;;5076245;28;20099;-77
2021/05/16 01:00:52;;;;;;;0.10;0.10;;;11.10;96.00;;;;;;5058361;28;20029;-79
2021/05/16 01:03:22;;;;;;;0.40;0.10;;;11.20;96.00;;;;;;5076048;28;20464;-78
2021/05/16 01:05:49;;;;;;;0.40;0.20;;;11.10;96.00;;;;;;5075802;28;20032;-80
2021/05/16 01:08:15;;;;;;;0.10;0.10;;;11.10;96.00;;;;;;5076313;28;20409;-78
2021/05/16 01:10:43;;;;;;;0.83;0.20;;;11.20;96.00;;;;;;5058337;28;20051;-77
2021/05/16 01:13:10;;;;;;;0.20;0.10;;;11.10;95.90;;;;;;5070439;28;20455;-78
2021/05/16 01:15:41;;;;;;;0.30;0.10;;;11.10;96.00;;;;;;5062766;28;20025;-81
2021/05/16 01:18:07;;;;;;;0.10;0.10;;;11.20;96.00;;;;;;5055822;28;20040;-76
2021/05/16 01:20:39;;;;;;;0.10;0.10;;;11.10;96.00;;;;;;5070373;28;20017;-77
2021/05/16 01:23:08;;;;;;;0.40;0.10;;;11.10;96.00;;;;;;5054290;28;20108;-78
2021/05/16 01:25:45;;;;;;;0.10;0.07;;;11.10;96.00;;;;;;5055672;28;20162;-78
2021/05/16 01:28:13;;;;;;;0.53;0.20;;;11.10;96.00;;;;;;5055571;28;20071;-75
2021/05/16 01:30:40;;;;;;;0.10;0.00;;;11.10;95.90;;;;;;5054433;28;20115;-76
2021/05/16 01:33:06;;;;;;;0.10;0.00;;;11.10;95.90;;;;;;5055439;28;20376;-76
2021/05/16 01:35:34;;;;;;;0.10;0.10;;;11.00;95.90;;;;;;5055432;28;20029;-78
2021/05/16 01:38:00;;;;;;;0.10;0.10;;;11.10;95.90;;;;;;5054193;28;20075;-77
2021/05/16 01:40:26;;;;;;;0.10;0.10;;;10.90;95.90;;;;;;5037629;28;20029;-77
2021/05/16 01:42:54;;;;;;;1.03;0.10;;;10.90;95.90;;;;;;5055259;28;20025;-77
2021/05/16 01:45:24;;;;;;;0.20;0.10;;;11.00;96.00;;;;;;5054970;28;20017;-78
2021/05/16 01:47:51;;;;;;;0.20;0.10;;;11.00;96.00;;;;;;5055247;28;20035;-76
2021/05/16 01:50:19;;;;;;;0.10;0.10;;;11.00;95.90;;;;;;5055552;28;20024;-79
2021/05/16 01:52:45;;;;;;;0.40;0.20;;;10.90;95.90;;;;;;5054033;28;20025;-76
2021/05/16 01:55:13;;;;;;;0.50;0.10;;;10.90;95.90;;;;;;5037677;28;20029;-76
2021/05/16 01:57:39;;;;;;;0.30;0.10;;;10.90;96.00;;;;;;5055030;28;20025;-78
2021/05/16 02:00:11;;;;;;;0.10;0.10;;;10.90;95.90;;;;;;5054772;28;20369;-78
2021/05/16 02:02:38;;;;;;;0.23;0.10;;;10.90;96.00;;;;;;5053673;28;20032;-77
2021/05/16 02:05:07;;;;;;;0.13;0.10;;;10.90;96.00;;;;;;5053566;28;20028;-76
2021/05/16 02:07:33;;;;;;;0.27;0.10;;;10.90;96.00;;;;;;5037856;28;20021;-76
2021/05/16 02:10:02;;;;;;;0.37;0.10;;;10.90;96.30;;;;;;5054908;28;20032;-76
2021/05/16 02:12:28;;;;;;;0.33;0.10;;;10.90;96.00;;;;;;5037272;28;20036;-75
2021/05/16 02:14:57;;;;;;;0.30;0.10;;;10.90;96.10;;;;;;5073509;28;20032;-80
2021/05/16 02:17:23;;;;;;;0.43;0.20;;;10.90;96.10;;;;;;5057108;28;20056;-78
2021/05/16 02:19:48;;;;;;;0.57;0.20;;;10.90;96.10;;;;;;5073154;28;20483;-77
2021/05/16 02:22:15;;;;;;;0.83;0.10;;;10.90;96.10;;;;;;5073272;28;20119;-75
2021/05/16 02:24:44;;;;;;;0.90;0.10;;;10.90;96.10;;;;;;5056474;28;20044;-77
2021/05/16 02:27:10;;;;;;;0.20;0.10;;;10.90;96.10;;;;;;5056540;28;20044;-78
2021/05/16 02:29:36;;;;;;;0.97;0.40;;;10.90;96.10;;;;;;5067258;28;20032;-79
2021/05/16 02:32:04;;;;;;;0.10;0.10;;;10.90;96.10;;;;;;5054513;28;20025;-78
2021/05/16 02:34:30;;;;;;;0.57;0.10;;;10.90;96.10;;;;;;5053228;28;20016;-75
2021/05/16 02:36:56;;;;;;;0.10;0.10;;;10.90;96.10;;;;;;5053256;28;20426;-75
2021/05/16 02:39:24;;;;;;;0.27;0.10;;;10.90;96.20;;;;;;5053426;28;20028;-74
2021/05/16 02:41:50;;;;;;;0.23;0.10;;;10.80;96.20;;;;;;5036500;28;20067;-75
2021/05/16 02:44:18;;;;;;;0.77;0.10;;;10.90;96.20;;;;;;5053167;28;20032;-72
2021/05/16 02:46:45;;;;;;;0.87;0.10;;;10.80;96.20;;;;;;5047805;28;20072;-72
2021/05/16 02:49:13;;;;;;;1.17;0.10;;;10.90;96.20;;;;;;5072011;28;20021;-74
2021/05/16 02:51:42;;;;;;;0.20;0.10;;;10.80;96.20;;;;;;5072668;28;20090;-76
2021/05/16 02:54:08;;;;;;;0.13;0.10;;;10.90;96.20;;;;;;5056004;28;20041;-76
2021/05/16 02:56:34;;;;;;;0.30;0.10;;;10.90;96.20;;;;;;5056061;28;20438;-77
2021/05/16 02:59:01;;;;;;;0.10;0.10;;;10.90;96.20;;;;;;5056216;28;20039;-74
2021/05/16 03:01:27;;;;;;;0.20;0.10;;;10.80;96.20;;;;;;5070675;28;20149;-76
2021/05/16 03:03:53;;;;;;;0.57;0.20;;;11.00;96.20;;;;;;5072754;28;20087;-77
2021/05/16 03:06:18;;;;;;;0.67;0.10;;;10.90;96.20;;;;;;5055650;28;20040;-73
2021/05/16 03:08:44;;;;;;;0.20;0.10;;;10.90;96.20;;;;;;5055743;28;20028;-75
2021/05/16 03:11:09;;;;;;;0.50;0.10;;;10.90;96.10;;;;;;5055759;28;20369;-72
2021/05/16 03:13:35;;;;;;;0.30;0.10;;;10.90;96.20;;;;;;5073920;28;20036;-74
2021/05/16 03:16:01;;;;;;;0.17;0.10;;;10.80;96.20;;;;;;5059534;28;20029;-77
2021/05/16 03:18:27;;;;;;;0.20;0.10;;;10.80;96.10;;;;;;5035970;28;20075;-74
2021/05/16 03:20:53;;;;;;;0.20;0.10;;;10.80;96.20;;;;;;5053761;28;20040;-72
2021/05/16 03:23:18;;;;;;;0.40;0.10;;;10.90;96.20;;;;;;5052634;28;20424;-76
2021/05/16 03:25:46;;;;;;;0.20;0.10;;;10.90;96.20;;;;;;5053381;28;20063;-75
2021/05/16 03:28:11;;;;;;;0.70;0.10;;;10.90;96.20;;;;;;5052294;28;20048;-75
2021/05/16 03:30:37;;;;;;;0.57;0.10;;;10.90;96.20;;;;;;5053555;28;20032;-74
2021/05/16 03:33:03;;;;;;;0.23;0.13;;;10.80;96.20;;;;;;5069583;28;20033;-74
2021/05/16 03:35:29;;;;;;;0.67;0.20;;;10.80;96.20;;;;;;5073734;28;20033;-74
2021/05/16 03:37:54;;;;;;;0.60;0.20;;;10.90;96.20;;;;;;5072209;28;20112;-76
2021/05/16 03:40:20;;;;;;;0.20;0.10;;;10.90;96.20;;;;;;5073448;28;20392;-75
2021/05/16 03:42:46;;;;;;;0.60;0.10;;;10.80;96.20;;;;;;5072463;28;20024;-75
2021/05/16 03:45:12;;;;;;;1.67;0.40;;;10.90;96.20;;;;;;5055378;28;20035;-76
2021/05/16 03:47:39;;;;;;;1.63;0.13;;;10.90;96.20;;;;;;5070225;28;20029;-74
2021/05/16 03:50:08;;;;;;;0.10;0.10;;;10.80;96.20;;;;;;5071828;28;20032;-76
2021/05/16 03:52:34;;;;;;;0.20;0.10;;;10.90;96.20;;;;;;5071734;28;20031;-74
2021/05/16 03:54:59;;;;;;;0.50;0.20;;;10.90;96.20;;;;;;5071616;28;20163;-73
2021/05/16 03:57:25;;;;;;;0.73;0.10;;;10.90;96.20;;;;;;5073687;28;20506;-75
2021/05/16 03:59:51;;;;;;;0.70;0.20;;;10.90;96.20;;;;;;5072460;28;20036;-73
2021/05/16 04:02:18;;;;;;;0.27;0.10;;;10.90;96.20;;;;;;5056620;28;20037;-77
2021/05/16 04:04:44;;;;;;;0.20;0.10;;;10.90;96.20;;;;;;5054170;28;20037;-73
2021/05/16 04:07:10;;;;;;;0.43;0.20;;;10.80;96.10;;;;;;5051756;28;20021;-74
2021/05/16 04:09:36;;;;;;;0.70;0.10;;;10.80;96.10;;;;;;5051992;28;20032;-76
2021/05/16 04:12:02;;;;;;;0.33;0.17;;;10.80;96.10;;;;;;5035467;28;20026;-74
2021/05/16 04:14:28;;;;;;;0.97;0.10;;;10.90;96.10;;;;;;5053590;28;20086;-74
2021/05/16 04:16:55;;;;;;;0.60;0.10;;;10.80;96.20;;;;;;5057225;28;20055;-77
2021/05/16 04:19:20;;;;;;;0.20;0.10;;;10.80;96.20;;;;;;5055950;28;20021;-76
2021/05/16 04:21:46;;;;;;;0.70;0.20;;;10.90;96.20;;;;;;5055885;28;20051;-75
2021/05/16 04:24:12;;;;;;;0.57;0.20;;;10.90;96.20;;;;;;5039278;28;20021;-76
2021/05/16 04:26:38;;;;;;;0.40;0.20;;;10.90;96.20;;;;;;5055580;28;20109;-75
2021/05/16 04:29:04;;;;;;;1.33;0.30;;;10.90;96.20;;;;;;5039054;28;20487;-77
2021/05/16 04:31:32;;;;;;;0.57;0.20;;;10.90;96.20;;;;;;5057343;28;20051;-77
2021/05/16 04:33:58;;;;;;;1.00;0.27;;;10.90;96.20;;;;;;5055653;28;20029;-74
2021/05/16 04:36:24;;;;;;;0.37;0.10;;;10.90;96.20;;;;;;5054450;28;20445;-74
2021/05/16 04:38:52;;;;;;;0.50;0.17;;;10.90;96.20;;;;;;5055987;28;20033;-75
2021/05/16 04:41:18;;;;;;;0.30;0.20;;;10.90;96.20;;;;;;5039128;28;20033;-76
2021/05/16 04:43:44;;;;;;;0.80;0.20;;;10.90;96.10;;;;;;5055519;28;20032;-78
2021/05/16 04:46:09;;;;;;;0.37;0.20;;;10.90;96.20;;;;;;5044489;28;20472;-77
2021/05/16 04:48:35;;;;;;;1.50;0.30;;;10.90;96.20;;;;;;5075126;28;20515;-75
2021/05/16 04:51:01;;;;;;;1.17;0.30;;;10.90;96.10;;;;;;5076104;28;20060;-78
2021/05/16 04:53:29;;;;;;;0.50;0.17;;;10.90;96.20;;;;;;5069713;28;20053;-74
2021/05/16 04:55:55;;;;;;;0.20;0.10;;;10.90;96.40;;;;;;5045350;28;20075;-76
2021/05/16 04:58:21;;;;;;;0.80;0.30;;;11.00;96.20;;;;;;5054731;28;20033;-80
2021/05/16 05:00:47;;;;;;;0.90;0.17;;;11.00;96.20;;;;;;5038246;28;20033;-76
2021/05/16 05:03:12;;;;;;;0.47;0.20;;;11.00;96.30;;;;;;5038259;28;20535;-76
2021/05/16 05:05:38;;;;;;;0.50;0.23;;;11.00;96.20;;;;;;5054723;28;20114;-76
2021/05/16 05:08:04;;;;;;;0.90;0.20;;;11.00;96.20;;;;;;5038312;28;20021;-76
2021/05/16 05:10:29;;;;;;;0.57;0.20;;;11.00;96.20;;;;;;5066079;28;20474;-75
2021/05/16 05:12:55;;;;;;;0.63;0.30;;;11.10;96.30;;;;;;5041339;28;20045;-76
2021/05/16 05:15:21;;;;;;;0.77;0.30;;;11.10;96.30;;;;;;5074720;28;20033;-79
2021/05/16 05:17:46;;;;;;;0.60;0.30;;;11.20;96.20;;;;;;5057929;28;20039;-77
2021/05/16 05:20:12;;;;;;;2.33;0.20;;;11.10;96.20;;;;;;5074766;28;20422;-76
2021/05/16 05:22:37;;;;;;;0.93;0.20;;;11.20;96.10;;;;;;5041398;28;20035;-77
2021/05/16 05:25:04;;;;;;;1.40;0.20;;;11.20;96.10;;;;;;5074546;28;20032;-78
2021/05/16 05:27:30;;;;;;;0.70;0.20;;;11.20;96.10;;;;;;5063330;28;20033;-77
2021/05/16 05:29:55;;;;;;;0.40;0.20;;;11.20;96.00;;;;;;5037960;28;20094;-76
2021/05/16 05:32:21;;;;;;;1.47;0.40;;;11.20;96.00;;;;;;5054675;28;20474;-78
2021/05/16 05:34:47;;;;;;;0.60;0.30;;;11.20;96.00;;;;;;5038063;28;20433;-77
2021/05/16 05:37:12;;;;;;;0.80;0.30;;;11.20;96.00;;;;;;5055618;28;20056;-77
2021/05/16 05:39:38;;;;;;;1.00;0.30;;;11.10;96.00;;;;;;5055593;28;20025;-78
2021/05/16 05:42:04;;;;;;;1.00;0.30;;;11.20;96.00;;;;;;5038760;28;20071;-79
2021/05/16 05:44:31;;;;;;;0.60;0.20;;;11.20;96.00;;;;;;5054220;28;20567;-76
2021/05/16 05:46:57;;;;;;;1.63;0.30;;;11.30;96.00;;;;;;5063274;28;20059;-78
2021/05/16 05:49:23;;;;;;;0.47;0.30;;;11.30;96.00;;;;;;5057534;28;20052;-79
2021/05/16 05:51:49;;;;;;;1.13;0.30;;;11.30;96.00;;;;;;5030103;28;20036;-79
2021/05/16 05:54:14;;;;;;;0.47;0.20;;;11.30;96.00;;;;;;5037178;28;20056;-76
2021/05/16 05:56:40;;;;;;;0.80;0.27;;;11.30;96.10;;;;;;5037246;28;20025;-79
2021/05/16 05:59:06;;;;;;;0.83;0.30;;;11.40;96.10;;;;;;5038213;28;20025;-74
2021/05/16 06:01:31;;;;;;;1.00;0.30;;;11.40;96.00;;;;;;5054080;28;20029;-76
2021/05/16 06:03:57;;;;;;;0.70;0.30;;;11.40;96.00;;;;;;5053836;28;20028;-77
2021/05/16 06:06:23;;;;;;;1.57;0.30;;;11.30;96.00;;;;;;5053507;28;20037;-76
2021/05/16 06:08:48;;;;;;;0.80;0.27;;;11.40;96.00;;;;;;5037573;28;20045;-77
2021/05/16 06:11:14;;;;;;;0.70;0.30;;;11.50;96.10;;;;;;5053772;28;20033;-76
2021/05/16 06:13:39;;;;;;;0.77;0.30;;;11.50;96.10;;;;;;5037177;28;20021;-78
2021/05/16 06:16:05;;;;;;;0.53;0.20;;;11.50;96.10;;;;;;5056085;28;20070;-78
2021/05/16 06:18:31;;;;;;;1.20;0.30;;;11.60;96.20;;;;;;5053738;28;20029;-79
2021/05/16 06:20:56;;;;;;;0.60;0.20;;;11.60;96.10;;;;;;5049440;28;20045;-79
2021/05/16 06:23:32;;;;;;;0.65;0.20;;;11.70;96.20;;;;;;5036713;28;20029;-76
2021/05/16 06:25:57;;;;;;;0.57;0.30;;;11.80;96.20;;;;;;5054642;28;20391;-78
2021/05/16 06:28:23;;;;;;;1.23;0.45;;;11.80;96.10;;;;;;5053345;28;20104;-78
2021/05/16 06:30:48;;;;;;;0.73;0.32;;;11.80;96.10;;;;;;5071217;28;20028;-77
2021/05/16 06:33:14;;;;;;;1.65;0.40;;;11.80;96.10;;;;;;5030060;28;20492;-78
2021/05/16 06:35:40;;;;;;;1.20;0.40;;;11.80;96.10;;;;;;5036138;28;20036;-78
2021/05/16 06:38:05;;;;;;;0.85;0.30;;;11.90;96.10;;;;;;5036526;28;20029;-77
2021/05/16 06:40:32;;;;;;;0.70;0.30;;;12.00;96.20;;;;;;5036276;28;20083;-79
2021/05/16 06:42:59;;;;;;;0.60;0.30;;;11.90;96.20;;;;;;5036817;28;20368;-76
2021/05/16 06:45:25;;;;;;;0.93;0.40;;;12.00;96.20;;;;;;5036836;28;20025;-78
2021/05/16 06:47:50;;;;;;;0.82;0.30;;;12.00;96.00;;;;;;5036212;28;20056;-77
2021/05/16 06:50:17;;;;;;;1.08;0.30;;;12.10;96.00;;;;;;5053077;28;20033;-77
2021/05/16 06:52:43;;;;;;;0.73;0.32;;;12.10;96.00;;;;;;5036521;28;20354;-76
2021/05/16 06:55:09;;;;;;;1.23;0.30;;;12.10;96.00;;;;;;5069356;28;20051;-76
2021/05/16 06:57:35;;;;;;;0.45;0.20;;;12.10;95.80;;;;;;5036448;28;20112;-76
2021/05/16 07:00:00;;;;;;;0.30;0.20;;;12.10;95.80;;;;;;5053897;28;20082;-75
2021/05/16 07:02:26;;;;;;;1.77;0.30;;;12.10;95.80;;;;;;5036793;28;20037;-77
2021/05/16 07:04:51;;;;;;;3.53;0.30;;;12.10;95.80;;;;;;5059750;28;20559;-77
2021/05/16 07:07:17;;;;;;;0.90;0.30;;;12.20;95.90;;;;;;5048081;28;20037;-78
2021/05/16 07:09:43;;;;;;;0.82;0.22;;;12.20;95.90;;;;;;5043859;28;20477;-77
2021/05/16 07:12:10;;;;;;;1.48;0.30;;;12.30;95.90;;;;;;5053679;28;20110;-78
2021/05/16 07:14:36;;;;;;;1.05;0.25;;;12.30;95.90;;;;;;5028516;28;20029;-76
2021/05/16 07:17:01;;;;;;;0.38;0.20;;;12.30;95.80;;;;;;5070558;28;20044;-77
2021/05/16 07:19:27;;;;;;;0.68;0.20;;;12.40;95.90;;;;;;5027351;28;20514;-76
2021/05/16 07:21:53;;;;;;;0.47;0.17;;;12.50;96.00;;;;;;5071882;28;20036;-77
2021/05/16 07:24:18;;;;;;;0.40;0.20;;;12.50;96.10;;;;;;5073718;28;20464;-76
2021/05/16 07:26:44;;;;;;;0.93;0.25;;;12.50;96.00;;;;;;5052727;28;20090;-77
2021/05/16 07:29:10;;;;;;;0.65;0.20;;;12.70;95.90;;;;;;5070881;28;20475;-75
2021/05/16 07:31:35;;;;;;;1.75;0.30;;;12.70;95.90;;;;;;5055690;28;20055;-75
2021/05/16 07:34:01;;;;;;;1.55;0.30;;;12.70;95.80;;;;;;5055470;28;20025;-81
2021/05/16 07:36:26;;;;;;;3.85;0.85;;;12.70;95.70;;;;;;5055710;28;20071;-77
2021/05/16 07:38:52;;;;;;;6.38;2.35;;;12.60;95.40;;;;;;5072301;28;20071;-78
2021/05/16 07:41:18;;;;;;;12.50;3.50;;;12.60;95.30;;;;;;5074043;28;20353;-75
2021/05/16 07:43:43;;;;;;;13.35;4.78;;;12.60;95.40;;;;;;5072334;28;20460;-77
2021/05/16 07:46:09;;;;;;;16.95;6.85;;;12.60;95.30;;;;;;5051839;28;20424;-77
2021/05/16 07:48:35;;;;;;;15.65;6.20;;;12.60;95.10;;;;;;5071751;28;20025;-77
2021/05/16 07:51:01;;;;;;;25.02;9.57;;;12.60;95.10;;;;;;5068786;28;20056;-76
2021/05/16 07:53:28;;;;;;;31.55;11.60;;;12.60;94.90;;;;;;5061780;28;20099;-78
2021/05/16 07:55:54;;;;;;;29.45;11.40;;;12.70;94.00;;;;;;5078760;28;20166;-77
2021/05/16 07:58:20;;;;;;;31.45;13.25;;;12.70;94.00;;;;;;5078695;28;20428;-78
2021/05/16 08:00:46;;;;;;;40.95;15.43;;;12.60;93.00;;;;;;5071375;28;20024;-76
2021/05/16 08:03:12;;;;;;;30.88;14.45;;;12.70;93.30;;;;;;5050868;28;20029;-75
2021/05/16 08:05:37;;;;;;;41.85;14.98;;;12.80;92.80;;;;;;5033072;28;20040;-77
2021/05/16 08:08:03;;;;;;;31.83;13.73;;;12.90;93.00;;;;;;5064539;28;20021;-79
2021/05/16 08:10:29;;;;;;;35.65;16.08;;;12.90;93.00;;;;;;5075311;28;20040;-78
2021/05/16 08:12:55;;;;;;;39.15;16.73;;;13.10;93.10;;;;;;5083180;28;20048;-75
2021/05/16 08:15:22;;;;;;;42.05;15.50;;;13.10;92.70;;;;;;5076825;28;20033;-76
2021/05/16 08:17:48;;;;;;;31.67;16.65;;;13.20;92.20;;;;;;5068784;28;20037;-79
2021/05/16 08:20:14;;;;;;;33.80;16.52;;;13.20;92.30;;;;;;5059793;28;20036;-74
2021/05/16 08:22:40;;;;;;;32.25;14.85;;;13.30;91.50;;;;;;5059772;28;20037;-78
2021/05/16 08:25:08;;;;;;;28.05;14.32;;;13.40;90.80;;;;;;5053335;28;20035;-78
2021/05/16 08:27:33;;;;;;;30.13;13.57;;;13.40;90.90;;;;;;5062388;28;20035;-76
2021/05/16 08:29:59;;;;;;;27.30;14.48;;;13.40;90.60;;;;;;5045198;28;20103;-78
2021/05/16 08:32:25;;;;;;;34.03;15.48;;;13.30;90.10;;;;;;5078084;28;20064;-76
2021/05/16 08:34:54;;;;;;;30.10;14.65;;;13.30;89.50;;;;;;5079499;28;20032;-76
2021/05/16 08:37:20;;;;;;;29.00;13.02;;;13.20;89.30;;;;;;5046265;28;20029;-78
2021/05/16 08:39:46;;;;;;;30.67;13.48;;;13.20;90.40;;;;;;5061611;28;20082;-79
2021/05/16 08:42:11;;;;;;;26.77;12.43;;;13.30;90.10;;;;;;5079627;28;20064;-77
2021/05/16 08:44:37;;;;;;;32.97;13.13;;;13.30;89.50;;;;;;5078439;28;20533;-80
2021/05/16 08:47:04;;;;;;;27.70;13.40;;;13.40;88.40;;;;;;5076231;28;20058;-79
2021/05/16 08:49:30;;;;;;;27.95;13.15;;;13.40;88.70;;;;;;5086471;28;20025;-75
2021/05/16 08:51:56;;;;;;;34.10;12.48;;;13.50;88.90;;;;;;5071240;28;20039;-77
2021/05/16 08:54:23;;;;;;;27.17;11.90;;;13.60;88.90;;;;;;5071364;28;20045;-77
2021/05/16 08:56:51;;;;;;;35.13;12.50;;;13.70;88.50;;;;;;5041683;28;20033;-80
2021/05/16 08:59:17;;;;;;;22.58;11.48;;;13.80;88.20;;;;;;5064651;28;20016;-79
2021/05/16 09:02:00;;;;;;;33.20;11.75;;;13.90;87.60;;;;;;5055021;28;20060;-76
2021/05/16 09:04:34;;;;;;;31.08;11.93;;;14.00;86.40;;;;;;5043248;28;20028;-79
2021/05/16 09:07:01;;;;;;;27.45;11.13;;;14.20;85.30;;;;;;5058764;28;20356;-78
2021/05/16 09:09:37;;;;;;;28.52;10.02;;;14.30;84.70;;;;;;5062419;28;20131;-76
2021/05/16 09:12:08;;;;;;;28.13;11.15;;;14.30;83.80;;;;;;5064913;28;20025;-77
2021/05/16 09:14:50;;;;;;;22.10;9.85;;;14.40;83.70;;;;;;5072580;28;20488;-75
2021/05/16 09:17:32;;;;;;;23.80;9.55;;;14.40;82.30;;;;;;5067899;28;20024;-77
2021/05/16 09:20:00;;;;;;;20.55;9.50;;;14.50;82.90;;;;;;5072922;28;20029;-78
2021/05/16 09:22:35;;;;;;;20.65;9.57;;;14.60;83.10;;;;;;5075065;28;20025;-75
2021/05/16 09:25:12;;;;;;;25.08;9.98;;;14.80;82.30;;;;;;5074293;28;20383;-76
2021/05/16 09:27:38;;;;;;;20.27;7.97;;;15.00;81.90;;;;;;5075855;28;20028;-76
2021/05/16 09:30:25;;;;;;;23.40;8.85;;;15.20;82.10;;;;;;5071489;28;20020;-77
2021/05/16 09:32:58;;;;;;;23.83;8.68;;;15.30;81.20;;;;;;5054763;28;20119;-81
2021/05/16 09:35:26;;;;;;;20.65;7.72;;;15.40;81.30;;;;;;5064781;28;20036;-75
2021/05/16 09:38:15;;;;;;;22.17;8.27;;;15.30;79.40;;;;;;5075554;28;20430;-75
2021/05/16 09:40:59;;;;;;;15.02;7.53;;;15.30;77.60;;;;;;5075597;28;20063;-76
2021/05/16 09:43:35;;;;;;;20.15;7.28;;;15.20;76.00;;;;;;5057810;28;20067;-75
2021/05/16 09:46:06;;;;;;;19.58;8.43;;;15.20;76.20;;;;;;5074090;28;20433;-76
2021/05/16 09:48:38;;;;;;;20.85;7.30;;;15.20;77.00;;;;;;5075215;28;20023;-76
2021/05/16 09:51:25;;;;;;;16.45;6.10;;;15.40;77.30;;;;;;5075733;28;20016;-76
2021/05/16 09:53:50;;;;;;;15.13;6.07;;;15.60;75.90;;;;;;5074448;28;20036;-75
2021/05/16 09:56:18;;;;;;;14.45;4.35;;;15.70;75.00;;;;;;5074943;28;20082;-78
2021/05/16 09:58:44;;;;;;;16.15;4.70;;;15.90;75.50;;;;;;5074323;28;20121;-77
2021/05/16 10:01:12;;;;;;;12.48;4.70;;;16.10;74.30;;;;;;5057101;28;20029;-77
2021/05/16 10:03:39;;;;;;;13.60;4.55;;;16.20;74.10;;;;;;5073996;28;20024;-76
2021/05/16 10:06:05;;;;;;;17.90;4.55;;;16.40;73.20;;;;;;5074358;28;20097;-77
2021/05/16 10:08:31;;;;;;;12.40;3.53;;;16.50;72.50;;;;;;5073545;28;20111;-79
2021/05/16 10:10:57;;;;;;;14.02;3.80;;;16.60;71.60;;;;;;5055761;28;20029;-73
2021/05/16 10:13:26;;;;;;;13.20;3.10;;;16.60;70.50;;;;;;5074960;28;20008;-76
2021/05/16 10:15:53;;;;;;;12.85;3.35;;;16.60;69.90;;;;;;5067226;28;20036;-76
2021/05/16 10:18:20;;;;;;;11.98;3.83;;;16.70;69.90;;;;;;5053509;28;20039;-75
2021/05/16 10:20:45;;;;;;;14.80;3.85;;;16.80;69.20;;;;;;5053775;28;20108;-75
2021/05/16 10:23:11;;;;;;;14.50;2.95;;;16.90;69.50;;;;;;5036771;28;20053;-75
2021/05/16 10:25:48;;;;;;;13.20;3.42;;;16.90;68.20;;;;;;5054758;28;20024;-76
2021/05/16 10:28:16;;;;;;;15.10;3.67;;;16.90;67.60;;;;;;5053185;28;20104;-75
2021/05/16 10:31:05;;;;;;;11.40;2.92;;;16.90;67.70;;;;;;5036571;28;20115;-73
2021/05/16 10:33:35;;;;;;;12.57;2.75;;;16.80;67.90;;;;;;5053398;28;20028;-76
2021/05/16 10:36:02;;;;;;;13.25;2.78;;;16.90;67.80;;;;;;5054692;28;20040;-79
2021/05/16 10:38:45;;;;;;;9.43;2.40;;;16.90;67.20;;;;;;5036724;28;20115;-78
2021/05/16 10:41:25;;;;;;;11.10;2.85;;;16.90;67.20;;;;;;5053030;28;20095;-74
2021/05/16 10:44:11;;;;;;;9.30;2.55;;;16.80;65.80;;;;;;5044703;28;20040;-76
2021/05/16 10:46:36;;;;;;;13.23;3.30;;;16.70;66.70;;;;;;5073067;28;20399;-80
2021/05/16 10:49:30;;;;;;;12.73;3.05;;;16.80;67.50;;;;;;5072795;28;20034;-76
2021/05/16 10:51:56;;;;;;;11.20;2.35;;;16.90;68.30;;;;;;5073160;28;20043;-77
2021/05/16 10:54:29;;;;;;;15.50;2.67;;;17.20;67.90;;;;;;5070585;28;20504;-81
2021/05/16 10:57:13;;;;;;;15.93;2.97;;;17.40;66.70;;;;;;5061085;28;20017;-76
2021/05/16 10:59:40;;;;;;;14.95;2.85;;;17.50;65.00;;;;;;5074144;28;20043;-78
2021/05/16 11:02:06;;;;;;;14.57;2.65;;;17.30;65.20;;;;;;5072128;28;20025;-74
2021/05/16 11:04:50;;;;;;;12.85;2.65;;;17.30;65.30;;;;;;5047776;28;20094;-73
2021/05/16 11:07:32;;;;;;;10.85;2.55;;;17.40;66.30;;;;;;5069867;28;20529;-77
2021/05/16 11:10:22;;;;;;;12.55;2.53;;;18.20;67.50;;;;;;5073298;28;20044;-72
2021/05/16 11:12:48;;;;;;;12.15;2.80;;;19.00;64.50;;;;;;5066896;28;20067;-73
2021/05/16 11:15:24;;;;;;;11.18;2.47;;;19.20;63.90;;;;;;5058953;28;20025;-75
2021/05/16 11:17:51;;;;;;;12.13;2.47;;;19.30;63.40;;;;;;5036045;28;20095;-73
2021/05/16 11:20:20;;;;;;;17.02;3.35;;;19.20;62.90;;;;;;5036185;28;20043;-74
2021/05/16 11:22:46;;;;;;;10.23;2.83;;;19.20;62.30;;;;;;5059338;28;20017;-76
2021/05/16 11:25:22;;;;;;;13.15;2.25;;;19.70;62.20;;;;;;5068757;28;20033;-81
2021/05/16 11:27:48;;;;;;;8.02;1.92;;;20.40;61.50;;;;;;5052459;28;20415;-75
2021/05/16 11:30:14;;;;;;;7.40;1.70;;;21.10;58.50;;;;;;5035844;28;20041;-74
2021/05/16 11:32:41;;;;;;;10.05;1.98;;;21.80;56.30;;;;;;5035262;28;20052;-75
2021/05/16 11:35:17;;;;;;;14.10;1.92;;;22.00;53.70;;;;;;5053795;28;20499;-76
2021/05/16 11:37:48;;;;;;;10.07;2.53;;;21.80;53.20;;;;;;5052313;28;20029;-76
2021/05/16 11:40:24;;;;;;;10.77;2.05;;;21.30;51.30;;;;;;5059869;28;20059;-82
2021/05/16 11:43:01;;;;;;;8.88;1.92;;;20.80;51.70;;;;;;5072001;28;20077;-81
2021/05/16 11:45:36;;;;;;;8.38;2.05;;;20.00;50.00;;;;;;5071930;28;20029;-84
2021/05/16 11:48:01;;;;;;;5.38;1.33;;;19.30;53.30;;;;;;5071972;28;20047;-83
2021/05/16 11:50:45;;;;;;;6.63;1.40;;;18.70;54.20;;;;;;5073688;28;20463;-82
2021/05/16 11:53:12;;;;;;;5.30;0.82;;;18.20;55.30;;;;;;5071902;28;20027;-81
2021/05/16 11:55:38;;;;;;;6.07;1.42;;;17.80;57.20;;;;;;5055766;28;20052;-84
2021/05/16 11:58:07;;;;;;;4.90;0.95;;;17.30;58.90;;;;;;5073040;28;20029;-85
2021/05/16 12:00:33;;;;;;;5.00;1.35;;;17.10;60.60;;;;;;5071820;28;20062;-82
2021/05/16 12:03:17;;;;;;;5.30;1.00;;;17.00;61.40;;;;;;5055505;28;20028;-84
2021/05/16 12:05:44;;;;;;;5.38;0.88;;;16.90;61.90;;;;;;5062596;28;20087;-83
2021/05/16 12:08:28;;;;;;;5.00;1.33;;;17.00;62.50;;;;;;5055083;28;20377;-84
2021/05/16 12:11:04;;;;;;;4.88;1.00;;;17.20;62.50;;;;;;5073039;28;20043;-85
2021/05/16 12:13:29;;;;;;;6.70;1.35;;;17.40;62.70;;;;;;5053379;28;20465;-81
2021/05/16 12:16:15;;;;;;;3.70;1.02;;;17.50;62.70;;;;;;5062418;28;20032;-76
2021/05/16 12:18:42;;;;;;;5.70;0.80;;;17.90;63.10;;;;;;5058798;28;20021;-76
2021/05/16 12:21:08;;;;;;;5.72;1.15;;;18.60;63.40;;;;;;5061986;28;20028;-76
2021/05/16 12:23:33;;;;;;;5.10;1.38;;;19.30;62.70;;;;;;5062165;28;20044;-77
2021/05/16 12:26:00;;;;;;;7.18;1.30;;;19.90;63.00;;;;;;5052288;28;20388;-78
2021/05/16 12:28:26;;;;;;;6.18;1.08;;;20.80;62.70;;;;;;5050859;28;20047;-77
2021/05/16 12:30:53;;;;;;;8.45;1.27;;;21.60;62.10;;;;;;5063841;28;20036;-77
2021/05/16 12:33:19;;;;;;;5.38;0.95;;;22.00;59.80;;;;;;5029025;28;20029;-77
2021/05/16 12:35:45;;;;;;;7.55;0.98;;;22.00;58.50;;;;;;5061026;28;20417;-76
2021/05/16 12:38:15;;;;;;;5.03;0.93;;;22.00;57.70;;;;;;5038366;28;20039;-76
2021/05/16 12:40:42;;;;;;;6.45;1.10;;;22.00;57.80;;;;;;5059320;28;20043;-76
2021/05/16 12:43:10;;;;;;;5.10;0.75;;;22.00;57.10;;;;;;5055245;28;20052;-77
2021/05/16 12:45:38;;;;;;;6.10;0.90;;;22.40;57.30;;;;;;5056439;28;20033;-76
2021/05/16 12:48:05;;;;;;;5.93;0.80;;;23.20;56.90;;;;;;5057722;28;20025;-76